Airfield :
LOGIN :

Register | Disclaimer

   EN    FR    IT 

 










Legend :    VFR   Marginal VFR   IFR   Intensive IFR   Very Intensive IFR
Visi :
Ceiling :
>= 8 km
>= 3000ft
5 to 8 km
1000 to 3000 ft
1500m to 5 km
500 to 1000 ft
800 to 1500m
200 to 500 ft
< 800m
< 200 ft
Symbols :   Thunderstorms  Fog  Heavy snow  Heavy precipitations  Wind > 20 kt
SIGMETs :     Misc.  Thunderstorms  Icing  Turbulence  Mountain Waves  Volcanic Ashes






- Airport Elevation : 19 ft
- IATA code : LCY


EGLC - London City

CURRENT METAR :
  • 201120Z AUTO 22018G31KT 190V250 9999 BKN015 11/08 Q1006

EXPIRED METARs :
  • 201050Z AUTO 21016KT 170V250 9999 BKN014 BKN018 OVC031 11/08 Q1007
  • 201020Z AUTO 22014G24KT 190V260 9999 BKN014 BKN021 OVC030 11/08 Q1007
  • 200950Z AUTO 22016KT 190V250 9999 BKN015 11/08 Q1008
  • 200920Z AUTO 21015KT 9999 BKN014 BKN020 OVC028 10/08 Q1008
  • 200850Z AUTO 21014KT 170V250 9999 BKN016 BKN024 11/07 Q1008

TAF TAF EGLC
Valid from the 20 at 09:00 until the 20 at 18:00 UTC


200805Z 2009/2018 22012KT 9999 SCT020
BECMG 2009/2010 21018G28KT
PROB30
TEMPO 2009/2011 4000 -RADZ BKN012
TEMPO 2011/2015 7000 RA BKN012
PROB40
TEMPO 2012/2014 24022G35KT 3000 +RA BKN008
BECMG 2013/2015 27012KT
PROB30
TEMPO 2015/2017 8000 SHRA BKN014TCU
ATIS : +44 20 7646 0224



MET'MAP, your aeronautical weather chart ! - Copyright ORBIFLY December 2007 - Disclaimer

ORBIFLY MET'MAP TEAM :

Programming & Development : Alexandra Zaïnal
Concept & original design : Baudouin d'Aumeries
Assistance for programming : Marc-Olivier Méhu
Technical & hardware support : Manuel Goepfert

Contact : metmap@orbifly.com




SOURCES & CREDITS :

   NOAA